createdAt,value
2022-08-17T00:00:43.993Z,23.12
2022-08-17T00:01:53.147Z,23.09
2022-08-17T00:03:10.371Z,23.08
2022-08-17T00:04:12.436Z,23.00
2022-08-17T00:05:19.947Z,22.98
2022-08-17T00:06:27.499Z,22.96
2022-08-17T00:07:29.116Z,22.96
2022-08-17T00:08:54.873Z,22.94
2022-08-17T00:09:57.632Z,22.92
2022-08-17T00:10:59.522Z,22.91
2022-08-17T00:12:35.068Z,22.88
2022-08-17T00:13:30.945Z,22.81
2022-08-17T00:14:32.566Z,22.82
2022-08-17T00:15:34.286Z,22.82
2022-08-17T00:16:51.018Z,22.82
2022-08-17T00:17:58.837Z,22.79
2022-08-17T00:19:07.677Z,22.79
2022-08-17T00:20:11.015Z,22.79
2022-08-17T00:21:12.797Z,22.78
2022-08-17T00:22:32.410Z,22.81
2022-08-17T00:23:38.042Z,22.79
2022-08-17T00:24:39.657Z,22.78
2022-08-17T00:25:42.699Z,22.73
2022-08-17T00:26:45.478Z,22.75
2022-08-17T00:27:47.435Z,22.71
2022-08-17T00:28:49.055Z,22.72
2022-08-17T00:29:53.541Z,22.73
2022-08-17T00:30:55.361Z,22.69
2022-08-17T00:31:57.038Z,22.71
2022-08-17T00:33:10.908Z,22.67
2022-08-17T00:34:19.027Z,22.69
2022-08-17T00:35:23.302Z,22.72
2022-08-17T00:36:24.973Z,22.68
2022-08-17T00:37:26.656Z,22.69
2022-08-17T00:38:28.565Z,22.65
2022-08-17T00:39:30.211Z,22.68
2022-08-17T00:40:44.220Z,22.69
2022-08-17T00:41:46.971Z,22.71
2022-08-17T00:42:49.074Z,22.69
2022-08-17T00:43:59.394Z,22.71
2022-08-17T00:45:01.030Z,22.71
2022-08-17T00:46:09.616Z,22.71
2022-08-17T00:47:11.266Z,22.71
2022-08-17T00:48:29.661Z,22.73
2022-08-17T00:49:32.030Z,22.73
2022-08-17T00:50:33.812Z,22.73
2022-08-17T00:51:43.669Z,22.78
2022-08-17T00:52:53.129Z,22.78
2022-08-17T00:54:03.618Z,22.82
2022-08-17T00:55:06.093Z,22.79
2022-08-17T00:56:09.307Z,22.79
2022-08-17T00:57:20.298Z,22.84
2022-08-17T00:58:30.402Z,22.81
2022-08-17T00:59:40.401Z,22.81
2022-08-17T01:00:43.210Z,22.84
2022-08-17T01:01:45.124Z,22.82
2022-08-17T01:02:47.042Z,22.84
2022-08-17T01:03:49.515Z,22.81
2022-08-17T01:04:51.285Z,22.81
2022-08-17T01:05:55.044Z,22.76
2022-08-17T01:06:57.035Z,22.76
2022-08-17T01:07:59.240Z,22.73
2022-08-17T01:09:01.468Z,22.73
2022-08-17T01:10:03.855Z,22.72
2022-08-17T01:11:06.272Z,22.69
2022-08-17T01:12:09.138Z,22.69
2022-08-17T01:13:11.399Z,22.68
2022-08-17T01:14:13.390Z,22.62
2022-08-17T01:15:16.177Z,22.62
2022-08-17T01:16:27.130Z,22.64
2022-08-17T01:17:28.770Z,22.62
2022-08-17T01:18:31.645Z,22.58
2022-08-17T01:19:35.943Z,22.58
2022-08-17T01:20:42.637Z,22.57
2022-08-17T01:22:11.166Z,22.55
2022-08-17T01:23:12.877Z,22.54
2022-08-17T01:24:22.566Z,22.55
2022-08-17T01:25:24.384Z,22.49
2022-08-17T01:26:26.154Z,22.47
2022-08-17T01:27:27.988Z,22.49
2022-08-17T01:28:52.810Z,22.44
2022-08-17T01:29:58.886Z,22.45
2022-08-17T01:31:02.258Z,22.47
2022-08-17T01:32:05.636Z,22.40
2022-08-17T01:33:11.468Z,22.38
2022-08-17T01:34:14.147Z,22.38
2022-08-17T01:35:15.799Z,22.33
2022-08-17T01:36:17.460Z,22.33
2022-08-17T01:37:20.497Z,22.28
2022-08-17T01:38:27.053Z,22.24
2022-08-17T01:39:35.289Z,22.25
2022-08-17T01:40:43.211Z,22.22
2022-08-17T01:41:45.364Z,22.21
2022-08-17T01:42:54.345Z,22.24
2022-08-17T01:43:59.164Z,22.24
2022-08-17T01:45:04.731Z,22.18
2022-08-17T01:46:06.427Z,22.24
2022-08-17T01:47:08.070Z,22.22
2022-08-17T01:48:10.248Z,22.18
2022-08-17T01:49:12.087Z,22.20
2022-08-17T01:50:16.022Z,22.20
2022-08-17T01:51:17.680Z,22.21
2022-08-17T01:52:19.375Z,22.21
2022-08-17T01:53:26.709Z,22.24
2022-08-17T01:54:28.407Z,22.18
2022-08-17T01:55:32.921Z,22.18
2022-08-17T01:56:35.644Z,22.16
2022-08-17T01:57:37.255Z,22.13
2022-08-17T01:58:39.536Z,22.13
2022-08-17T01:59:41.155Z,22.03
2022-08-17T02:00:46.901Z,22.01
2022-08-17T02:02:02.712Z,22.00
2022-08-17T02:03:04.397Z,21.96
2022-08-17T02:04:06.575Z,21.96
2022-08-17T02:05:08.336Z,21.98
2022-08-17T02:06:27.239Z,21.96
2022-08-17T02:07:29.926Z,21.94
2022-08-17T02:08:38.749Z,21.96
2022-08-17T02:09:41.495Z,21.96
2022-08-17T02:10:46.812Z,21.96
2022-08-17T02:11:48.622Z,21.97
2022-08-17T02:12:52.102Z,21.98
2022-08-17T02:13:57.797Z,22.03
2022-08-17T02:15:06.096Z,22.03
2022-08-17T02:16:07.785Z,22.00
2022-08-17T02:17:09.468Z,21.96
2022-08-17T02:18:13.391Z,21.96
2022-08-17T02:19:15.914Z,21.97
2022-08-17T02:20:17.976Z,21.92
2022-08-17T02:21:39.804Z,21.94
2022-08-17T02:22:42.509Z,21.94
2022-08-17T02:23:46.512Z,21.90
2022-08-17T02:25:00.385Z,21.86
2022-08-17T02:26:03.932Z,21.87
2022-08-17T02:27:05.834Z,21.90
2022-08-17T02:28:07.474Z,21.86
2022-08-17T02:29:09.105Z,21.86
2022-08-17T02:31:02.094Z,21.86
2022-08-17T02:31:35.030Z,21.86
2022-08-17T02:32:37.057Z,21.82
2022-08-17T02:33:43.131Z,21.87
2022-08-17T02:34:45.252Z,21.84
2022-08-17T02:35:46.872Z,21.87
2022-08-17T02:36:48.621Z,21.90
2022-08-17T02:37:55.359Z,21.90
2022-08-17T02:38:58.677Z,21.90
2022-08-17T02:40:00.551Z,21.92
2022-08-17T02:41:02.223Z,21.93
2022-08-17T02:42:04.361Z,21.96
2022-08-17T02:43:09.407Z,21.96
2022-08-17T02:44:11.438Z,21.97
2022-08-17T02:45:21.385Z,21.98
2022-08-17T02:46:23.007Z,22.03
2022-08-17T02:47:24.706Z,22.03
2022-08-17T02:48:30.541Z,22.03
2022-08-17T02:49:33.355Z,22.06
2022-08-17T02:50:35.033Z,22.06
2022-08-17T02:51:36.739Z,22.06
2022-08-17T02:52:42.289Z,22.10
2022-08-17T02:53:45.605Z,22.10
2022-08-17T02:54:47.407Z,22.11
2022-08-17T02:55:49.148Z,22.13
2022-08-17T02:56:50.821Z,22.11
2022-08-17T02:57:52.635Z,22.13
2022-08-17T02:58:54.287Z,22.13
2022-08-17T02:59:55.937Z,22.07
2022-08-17T03:00:57.547Z,22.07
2022-08-17T03:02:00.765Z,22.06
2022-08-17T03:03:05.698Z,22.01
2022-08-17T03:04:07.413Z,22.00
2022-08-17T03:05:10.129Z,22.00
2022-08-17T03:06:11.798Z,22.00
2022-08-17T03:07:13.409Z,21.96
2022-08-17T03:08:15.408Z,22.01
2022-08-17T03:09:17.018Z,21.94
2022-08-17T03:10:19.256Z,21.94
2022-08-17T03:11:20.877Z,21.94
2022-08-17T03:12:22.502Z,21.93
2022-08-17T03:13:24.296Z,21.94
2022-08-17T03:14:26.266Z,21.93
2022-08-17T03:15:30.969Z,21.96
2022-08-17T03:16:32.999Z,21.93
2022-08-17T03:17:35.223Z,21.92
2022-08-17T03:18:36.988Z,21.90
2022-08-17T03:19:42.981Z,21.86
2022-08-17T03:20:45.008Z,21.83
2022-08-17T03:21:46.613Z,21.87
2022-08-17T03:23:02.881Z,21.93
2022-08-17T03:24:08.870Z,21.90
2022-08-17T03:25:12.358Z,21.90
2022-08-17T03:26:15.578Z,21.90
2022-08-17T03:27:17.964Z,21.93
2022-08-17T03:28:19.562Z,21.90
2022-08-17T03:29:21.248Z,21.90
2022-08-17T03:30:23.386Z,21.92
2022-08-17T03:31:25.059Z,21.92
2022-08-17T03:32:26.678Z,21.92
2022-08-17T03:33:28.287Z,21.92
2022-08-17T03:34:29.981Z,21.89
2022-08-17T03:35:32.538Z,21.86
2022-08-17T03:36:36.158Z,21.86
2022-08-17T03:37:37.925Z,21.86
2022-08-17T03:38:39.637Z,21.83
2022-08-17T03:39:41.406Z,21.82
2022-08-17T03:40:56.753Z,21.82
2022-08-17T03:42:07.033Z,21.80
2022-08-17T03:43:09.607Z,21.82
2022-08-17T03:44:11.224Z,21.82
2022-08-17T03:45:15.652Z,21.86
2022-08-17T03:46:35.852Z,21.82
2022-08-17T03:47:56.262Z,21.80
2022-08-17T03:49:16.133Z,21.82
2022-08-17T03:50:38.575Z,21.80
2022-08-17T03:51:58.663Z,21.76
2022-08-17T03:53:19.088Z,21.76
2022-08-17T03:54:39.236Z,21.79
2022-08-17T03:55:59.522Z,21.77
2022-08-17T03:57:03.901Z,21.76
2022-08-17T03:58:05.632Z,21.77
2022-08-17T03:59:07.272Z,21.76
2022-08-17T04:00:22.718Z,21.76
2022-08-17T04:01:24.701Z,21.79
2022-08-17T04:02:31.057Z,21.77
2022-08-17T04:03:32.839Z,21.82
2022-08-17T04:04:35.083Z,21.79
2022-08-17T04:05:36.725Z,21.77
2022-08-17T04:06:38.539Z,21.79
2022-08-17T04:07:40.242Z,21.83
2022-08-17T04:08:41.845Z,21.83
2022-08-17T04:09:43.441Z,21.80
2022-08-17T04:10:45.485Z,21.86
2022-08-17T04:11:47.224Z,21.87
2022-08-17T04:12:54.666Z,21.84
2022-08-17T04:13:56.870Z,21.89
2022-08-17T04:14:58.977Z,21.84
2022-08-17T04:16:00.590Z,21.89
2022-08-17T04:17:04.054Z,21.90
2022-08-17T04:18:07.401Z,21.93
2022-08-17T04:19:09.459Z,21.89
2022-08-17T04:20:12.683Z,21.90
2022-08-17T04:21:14.302Z,21.96
2022-08-17T04:22:30.773Z,21.97
2022-08-17T04:23:36.676Z,22.01
2022-08-17T04:24:38.289Z,22.04
2022-08-17T04:25:42.702Z,22.06
2022-08-17T04:26:53.261Z,22.07
2022-08-17T04:27:56.499Z,22.10
2022-08-17T04:28:58.702Z,22.14
2022-08-17T04:30:00.878Z,22.10
2022-08-17T04:31:02.510Z,22.10
2022-08-17T04:32:04.566Z,22.11
2022-08-17T04:33:08.862Z,22.11
2022-08-17T04:34:10.530Z,22.04
2022-08-17T04:35:12.182Z,22.08
2022-08-17T04:36:14.656Z,22.07
2022-08-17T04:37:16.284Z,22.10
2022-08-17T04:38:22.445Z,22.14
2022-08-17T04:39:26.290Z,22.16
2022-08-17T04:40:46.634Z,22.13
2022-08-17T04:42:06.435Z,22.17
2022-08-17T04:43:11.844Z,22.21
2022-08-17T04:44:13.481Z,22.20
2022-08-17T04:45:39.167Z,22.21
2022-08-17T04:46:41.076Z,22.21
2022-08-17T04:47:42.701Z,22.18
2022-08-17T04:48:49.377Z,22.16
2022-08-17T04:49:51.061Z,22.17
2022-08-17T04:50:52.688Z,22.20
2022-08-17T04:51:56.191Z,22.17
2022-08-17T04:53:02.061Z,22.17
2022-08-17T04:54:14.697Z,22.13
2022-08-17T04:55:16.316Z,22.11
2022-08-17T04:56:18.891Z,22.13
2022-08-17T04:57:20.734Z,22.18
2022-08-17T04:58:22.473Z,22.17
2022-08-17T04:59:24.123Z,22.20
2022-08-17T05:00:26.117Z,22.21
2022-08-17T05:01:29.313Z,22.25
2022-08-17T05:02:32.178Z,22.27
2022-08-17T05:03:33.867Z,22.28
2022-08-17T05:04:35.599Z,22.31
2022-08-17T05:05:38.449Z,22.33
2022-08-17T05:06:40.151Z,22.35
2022-08-17T05:07:42.101Z,22.38
2022-08-17T05:08:43.780Z,22.43
2022-08-17T05:09:45.406Z,22.48
2022-08-17T05:10:47.316Z,22.49
2022-08-17T05:11:49.031Z,22.52
2022-08-17T05:13:00.439Z,22.54
2022-08-17T05:14:02.105Z,22.54
2022-08-17T05:15:04.159Z,22.58
2022-08-17T05:16:06.022Z,22.59
2022-08-17T05:17:11.370Z,22.69
2022-08-17T05:18:13.457Z,22.72
2022-08-17T05:19:15.228Z,22.75
2022-08-17T05:20:16.969Z,22.78
2022-08-17T05:21:19.034Z,22.79
2022-08-17T05:22:20.656Z,22.85
2022-08-17T05:23:23.506Z,22.89
2022-08-17T05:24:42.685Z,22.92
2022-08-17T05:25:48.283Z,23.02
2022-08-17T05:26:51.356Z,23.13
2022-08-17T05:27:54.479Z,23.27
2022-08-17T05:29:00.321Z,23.31
2022-08-17T05:30:03.286Z,23.49
2022-08-17T05:31:04.946Z,23.59
2022-08-17T05:32:38.702Z,23.69
2022-08-17T05:33:35.159Z,23.77
2022-08-17T05:34:36.774Z,23.85
2022-08-17T05:35:39.860Z,23.91
2022-08-17T05:36:42.934Z,23.97
2022-08-17T05:37:46.045Z,24.00
2022-08-17T05:38:47.715Z,24.02
2022-08-17T05:39:49.434Z,24.14
2022-08-17T05:40:51.397Z,24.26
2022-08-17T05:41:53.077Z,24.59
2022-08-17T05:43:11.224Z,25.10
2022-08-17T05:44:12.939Z,25.53
2022-08-17T05:45:15.940Z,25.73
2022-08-17T05:46:26.848Z,25.92
2022-08-17T05:47:28.475Z,26.09
2022-08-17T05:48:40.051Z,26.28
2022-08-17T05:49:42.019Z,26.42
2022-08-17T05:51:36.058Z,26.50
2022-08-17T05:52:47.853Z,26.73
2022-08-17T05:54:26.780Z,26.89
2022-08-17T05:55:41.526Z,26.96
2022-08-17T05:57:13.808Z,27.03
2022-08-17T05:58:31.334Z,27.03
2022-08-17T05:59:50.467Z,27.18
2022-08-17T06:01:07.845Z,27.11
2022-08-17T06:02:48.170Z,27.15
2022-08-17T06:04:11.280Z,27.21
2022-08-17T06:05:13.033Z,27.23
2022-08-17T06:06:25.211Z,27.33
2022-08-17T06:07:36.848Z,27.27
2022-08-17T06:08:53.704Z,27.26
2022-08-17T06:10:17.116Z,27.12
2022-08-17T06:11:38.388Z,27.10
2022-08-17T06:13:16.388Z,26.99
2022-08-17T06:14:31.975Z,27.12
2022-08-17T06:15:52.832Z,26.96
2022-08-17T06:17:00.476Z,27.11
2022-08-17T06:18:04.116Z,27.10
2022-08-17T06:19:12.155Z,27.20
2022-08-17T06:20:15.122Z,27.17
2022-08-17T06:21:18.229Z,27.24
2022-08-17T06:22:28.146Z,27.37
2022-08-17T06:23:35.504Z,27.40
2022-08-17T06:24:47.692Z,27.27
2022-08-17T06:25:51.098Z,27.34
2022-08-17T06:26:52.751Z,27.33
2022-08-17T06:27:57.407Z,27.21
2022-08-17T06:29:04.660Z,27.23
2022-08-17T06:30:16.115Z,27.24
2022-08-17T06:31:29.422Z,27.20
2022-08-17T06:32:31.268Z,27.11
2022-08-17T06:33:34.799Z,27.21
2022-08-17T06:34:37.578Z,27.30
2022-08-17T06:35:43.929Z,27.38
2022-08-17T06:36:50.660Z,27.18
2022-08-17T06:38:38.059Z,27.21
2022-08-17T06:39:58.503Z,27.31
2022-08-17T06:41:16.414Z,27.40
2022-08-17T06:42:54.687Z,27.41
2022-08-17T06:44:10.053Z,27.50
2022-08-17T06:45:15.390Z,27.59
2022-08-17T06:46:39.820Z,27.65
2022-08-17T06:47:53.327Z,27.71
2022-08-17T06:49:16.157Z,27.72
2022-08-17T06:50:19.567Z,27.88
2022-08-17T06:51:34.207Z,27.85
2022-08-17T06:52:55.727Z,27.82
2022-08-17T06:54:05.495Z,27.81
2022-08-17T06:55:09.507Z,27.79
2022-08-17T06:56:53.280Z,27.84
2022-08-17T06:57:59.259Z,27.95
2022-08-17T06:59:00.984Z,28.02
2022-08-17T07:00:13.553Z,28.08
2022-08-17T07:01:21.360Z,28.06
2022-08-17T07:03:01.689Z,28.22
2022-08-17T07:04:11.482Z,28.29
2022-08-17T07:05:14.981Z,28.35
2022-08-17T07:06:19.697Z,28.42
2022-08-17T07:07:39.867Z,28.39
2022-08-17T07:08:41.515Z,28.49
2022-08-17T07:09:43.164Z,28.46
2022-08-17T07:11:09.759Z,28.49
2022-08-17T07:12:15.991Z,28.57
2022-08-17T07:13:26.137Z,28.63
2022-08-17T07:14:36.828Z,28.73
2022-08-17T07:15:42.424Z,28.80
2022-08-17T07:16:51.736Z,28.74
2022-08-17T07:17:53.407Z,28.87
2022-08-17T07:18:57.557Z,28.80
2022-08-17T07:20:08.710Z,28.75
2022-08-17T07:21:25.818Z,28.70
2022-08-17T07:22:57.538Z,28.77
2022-08-17T07:24:30.551Z,28.93
2022-08-17T07:25:32.397Z,29.00
2022-08-17T07:26:34.007Z,29.10
2022-08-17T07:27:38.103Z,29.14
2022-08-17T07:28:39.757Z,29.22
2022-08-17T07:29:51.343Z,29.32
2022-08-17T07:30:53.957Z,29.35
2022-08-17T07:31:55.595Z,29.35
2022-08-17T07:33:13.383Z,29.32
2022-08-17T07:34:15.338Z,29.38
2022-08-17T07:35:18.299Z,29.44
2022-08-17T07:36:29.650Z,29.51
2022-08-17T07:37:33.447Z,29.54
2022-08-17T07:38:35.705Z,29.54
2022-08-17T07:39:37.379Z,29.52
2022-08-17T07:41:02.541Z,29.54
2022-08-17T07:42:04.638Z,29.56
2022-08-17T07:43:23.031Z,29.69
2022-08-17T07:44:25.190Z,29.67
2022-08-17T07:45:45.479Z,29.76
2022-08-17T07:47:10.328Z,29.76
2022-08-17T07:48:20.583Z,29.73
2022-08-17T07:49:24.950Z,29.77
2022-08-17T07:50:27.722Z,29.72
2022-08-17T07:51:38.439Z,29.77
2022-08-17T07:52:50.895Z,29.82
2022-08-17T07:54:13.503Z,29.83
2022-08-17T07:55:26.648Z,29.90
2022-08-17T07:56:37.862Z,29.96
2022-08-17T07:57:40.682Z,29.92
2022-08-17T07:58:42.381Z,29.92
2022-08-17T08:00:06.045Z,29.87
2022-08-17T08:01:15.460Z,29.93
2022-08-17T08:02:22.765Z,29.93
2022-08-17T08:03:32.087Z,29.86
2022-08-17T08:04:59.855Z,29.92
2022-08-17T08:06:02.519Z,30.00
2022-08-17T08:07:23.356Z,29.96
2022-08-17T08:08:42.955Z,30.03
2022-08-17T08:09:47.006Z,30.06
2022-08-17T08:10:59.829Z,30.10
2022-08-17T08:12:24.774Z,30.24
2022-08-17T08:13:35.240Z,30.23
2022-08-17T08:14:39.544Z,30.16
2022-08-17T08:15:45.038Z,30.21
2022-08-17T08:16:59.076Z,30.30
2022-08-17T08:18:03.057Z,30.34
2022-08-17T08:19:05.217Z,30.30
2022-08-17T08:20:50.835Z,30.34
2022-08-17T08:21:36.891Z,30.47
2022-08-17T08:22:53.740Z,30.50
2022-08-17T08:24:16.929Z,30.54
2022-08-17T08:25:25.627Z,30.60
2022-08-17T08:26:33.790Z,30.58
2022-08-17T08:27:46.248Z,30.68
2022-08-17T08:28:51.208Z,30.75
2022-08-17T08:30:14.232Z,30.84
2022-08-17T08:31:24.752Z,30.85
2022-08-17T08:32:29.416Z,30.96
2022-08-17T08:33:40.831Z,31.01
2022-08-17T08:35:01.103Z,31.09
2022-08-17T08:37:12.533Z,31.14
2022-08-17T08:37:51.341Z,31.12
2022-08-17T08:39:02.982Z,31.15
2022-08-17T08:40:28.449Z,31.09
2022-08-17T08:41:52.254Z,31.07
2022-08-17T08:43:12.603Z,31.08
2022-08-17T08:45:00.029Z,31.12
2022-08-17T08:46:23.543Z,31.08
2022-08-17T08:47:36.178Z,31.03
2022-08-17T08:48:56.148Z,31.05
2022-08-17T08:50:05.539Z,31.15
2022-08-17T08:51:30.938Z,31.18
2022-08-17T08:52:53.663Z,31.19
2022-08-17T08:53:58.932Z,31.22
2022-08-17T08:55:39.441Z,31.29
2022-08-17T08:56:53.787Z,31.38
2022-08-17T08:58:31.538Z,31.42
2022-08-17T09:00:02.443Z,31.45
2022-08-17T09:01:09.076Z,31.52
2022-08-17T09:02:56.907Z,31.47
2022-08-17T09:04:24.807Z,31.54
2022-08-17T09:05:48.623Z,31.62
2022-08-17T09:07:31.686Z,31.72
2022-08-17T09:08:55.671Z,31.73
2022-08-17T09:10:26.393Z,31.65
2022-08-17T09:12:02.893Z,31.63
2022-08-17T09:13:22.143Z,31.67
2022-08-17T09:14:29.471Z,31.76
2022-08-17T09:15:53.142Z,31.84
2022-08-17T09:17:03.127Z,31.84
2022-08-17T09:19:00.203Z,31.82
2022-08-17T09:19:34.346Z,31.82
2022-08-17T09:20:50.559Z,31.82
2022-08-17T09:21:55.363Z,31.84
2022-08-17T09:23:09.270Z,31.86
2022-08-17T09:24:36.399Z,31.92
2022-08-17T09:25:49.930Z,31.86
2022-08-17T09:27:00.518Z,31.87
2022-08-17T09:28:16.394Z,31.92
2022-08-17T09:29:18.125Z,31.97
2022-08-17T09:30:19.902Z,32.04
2022-08-17T09:31:47.057Z,31.97
2022-08-17T09:32:56.127Z,32.00
2022-08-17T09:33:58.730Z,31.96
2022-08-17T09:35:36.548Z,31.98
2022-08-17T09:37:20.307Z,32.04
2022-08-17T09:38:43.635Z,32.07
2022-08-17T09:39:53.092Z,32.07
2022-08-17T09:41:02.357Z,32.14
2022-08-17T09:42:18.810Z,32.14
2022-08-17T09:43:20.430Z,32.19
2022-08-17T09:44:27.055Z,32.23
2022-08-17T09:45:52.965Z,32.19
2022-08-17T09:46:58.720Z,32.25
2022-08-17T09:48:08.623Z,32.21
2022-08-17T09:49:25.286Z,32.17
2022-08-17T09:51:03.940Z,32.16
2022-08-17T09:52:15.286Z,32.09
2022-08-17T09:53:19.400Z,32.10
2022-08-17T09:54:44.837Z,32.13
2022-08-17T09:55:52.105Z,32.13
2022-08-17T09:57:29.040Z,32.20
2022-08-17T09:59:07.271Z,32.25
2022-08-17T10:00:17.908Z,32.34
2022-08-17T10:01:31.407Z,32.30
2022-08-17T10:02:44.730Z,32.16
2022-08-17T10:04:14.291Z,32.21
2022-08-17T10:05:32.002Z,32.28
2022-08-17T10:06:38.005Z,32.38
2022-08-17T10:07:56.512Z,32.51
2022-08-17T10:09:14.303Z,32.61
2022-08-17T10:10:32.520Z,32.71
2022-08-17T10:12:05.626Z,32.75
2022-08-17T10:13:24.222Z,32.81
2022-08-17T10:15:07.925Z,32.65
2022-08-17T10:16:22.699Z,32.47
2022-08-17T10:17:27.506Z,32.34
2022-08-17T10:18:38.967Z,32.25
2022-08-17T10:20:06.171Z,32.13
2022-08-17T10:21:30.017Z,32.17
2022-08-17T10:23:17.977Z,32.21
2022-08-17T10:25:22.962Z,32.28
2022-08-17T10:26:25.016Z,32.45
2022-08-17T10:27:39.770Z,32.55
2022-08-17T10:28:59.304Z,32.65
2022-08-17T10:30:04.280Z,32.67
2022-08-17T10:31:33.305Z,32.70
2022-08-17T10:32:48.853Z,32.76
2022-08-17T10:34:41.112Z,32.82
2022-08-17T10:36:10.678Z,32.84
2022-08-17T10:37:25.210Z,32.92
2022-08-17T10:38:37.271Z,32.96
2022-08-17T10:40:15.814Z,33.04
2022-08-17T10:41:38.189Z,33.16
2022-08-17T10:42:56.254Z,33.22
2022-08-17T10:44:39.095Z,33.22
2022-08-17T10:45:45.191Z,33.27
2022-08-17T10:47:03.502Z,33.29
2022-08-17T10:48:08.470Z,33.35
2022-08-17T10:49:18.293Z,33.32
2022-08-17T10:50:48.078Z,33.42
2022-08-17T10:52:00.673Z,33.46
2022-08-17T10:53:02.373Z,33.53
2022-08-17T10:54:07.610Z,33.57
2022-08-17T10:55:13.229Z,33.56
2022-08-17T10:56:15.516Z,33.60
2022-08-17T10:57:33.158Z,33.60
2022-08-17T10:58:38.556Z,33.46
2022-08-17T10:59:41.950Z,33.37
2022-08-17T11:00:43.579Z,33.35
2022-08-17T11:01:58.361Z,33.29
2022-08-17T11:03:00.758Z,33.21
2022-08-17T11:04:11.742Z,33.12
2022-08-17T11:05:33.624Z,33.13
2022-08-17T11:06:42.573Z,33.13
2022-08-17T11:07:58.630Z,33.15
2022-08-17T11:09:12.276Z,33.12
2022-08-17T11:10:34.901Z,33.19
2022-08-17T11:11:45.393Z,33.19
2022-08-17T11:13:16.175Z,33.27
2022-08-17T11:14:32.563Z,33.33
2022-08-17T11:16:02.421Z,33.32
2022-08-17T11:17:24.088Z,33.43
2022-08-17T11:18:40.729Z,33.47
2022-08-17T11:19:51.930Z,33.53
2022-08-17T11:21:45.167Z,33.56
2022-08-17T11:22:49.786Z,33.55
2022-08-17T11:24:06.473Z,33.59
2022-08-17T11:25:19.421Z,33.65
2022-08-17T11:26:26.919Z,33.67
2022-08-17T11:27:33.428Z,33.69
2022-08-17T11:28:44.637Z,33.76
2022-08-17T11:30:01.910Z,33.83
2022-08-17T11:31:10.087Z,33.86
2022-08-17T11:32:26.967Z,33.87
2022-08-17T11:33:36.908Z,33.87
2022-08-17T11:34:44.576Z,33.87
2022-08-17T11:35:49.522Z,33.70
2022-08-17T11:37:07.358Z,33.78
2022-08-17T11:38:18.432Z,33.76
2022-08-17T11:39:45.425Z,33.73
2022-08-17T11:41:01.269Z,33.66
2022-08-17T11:42:09.914Z,33.70
2022-08-17T11:43:40.910Z,33.72
2022-08-17T11:45:03.859Z,33.73
2022-08-17T11:46:22.988Z,33.78
2022-08-17T11:48:29.222Z,33.78
2022-08-17T11:50:16.026Z,33.86
2022-08-17T11:51:34.512Z,33.86
2022-08-17T11:52:40.324Z,33.90
2022-08-17T11:53:43.058Z,33.97
2022-08-17T11:54:48.151Z,33.96
2022-08-17T11:55:52.772Z,33.92
2022-08-17T11:56:54.397Z,33.83
2022-08-17T11:58:04.265Z,33.83
2022-08-17T11:59:41.980Z,33.81
2022-08-17T12:00:46.620Z,33.81
2022-08-17T12:01:52.931Z,33.86
2022-08-17T12:03:23.804Z,33.89
2022-08-17T12:04:28.504Z,33.83
2022-08-17T12:05:31.212Z,33.89
2022-08-17T12:06:42.259Z,33.87
2022-08-17T12:07:52.643Z,33.80
2022-08-17T12:09:16.339Z,33.86
2022-08-17T12:10:19.186Z,33.86
2022-08-17T12:11:55.101Z,33.84
2022-08-17T12:12:55.685Z,33.90
2022-08-17T12:13:58.381Z,33.81
2022-08-17T12:15:10.474Z,33.89
2022-08-17T12:16:18.977Z,33.86
2022-08-17T12:17:39.783Z,33.86
2022-08-17T12:18:53.143Z,33.76
2022-08-17T12:19:55.203Z,33.72
2022-08-17T12:21:15.554Z,33.76
2022-08-17T12:22:32.228Z,33.74
2022-08-17T12:23:42.038Z,33.76
2022-08-17T12:24:45.953Z,33.78
2022-08-17T12:25:49.496Z,33.81
2022-08-17T12:26:54.362Z,33.84
2022-08-17T12:28:05.184Z,33.89
2022-08-17T12:29:18.137Z,33.89
2022-08-17T12:30:36.612Z,33.78
2022-08-17T12:31:45.730Z,33.81
2022-08-17T12:32:51.110Z,33.83
2022-08-17T12:33:52.802Z,33.73
2022-08-17T12:34:54.464Z,33.74
2022-08-17T12:36:04.881Z,33.72
2022-08-17T12:37:18.692Z,33.73
2022-08-17T12:38:32.546Z,33.69
2022-08-17T12:39:35.116Z,33.70
2022-08-17T12:40:37.811Z,33.73
2022-08-17T12:41:45.198Z,33.74
2022-08-17T12:42:58.752Z,33.81
2022-08-17T12:44:30.390Z,33.86
2022-08-17T12:45:33.860Z,33.90
2022-08-17T12:46:51.635Z,33.96
2022-08-17T12:48:24.642Z,33.92
2022-08-17T12:49:30.472Z,33.98
2022-08-17T12:50:32.280Z,34.00
2022-08-17T12:51:34.247Z,34.03
2022-08-17T12:52:37.978Z,34.01
2022-08-17T12:53:40.038Z,33.96
2022-08-17T12:55:07.083Z,33.94
2022-08-17T12:56:10.802Z,33.93
2022-08-17T12:57:18.892Z,33.90
2022-08-17T12:58:22.504Z,33.96
2022-08-17T12:59:29.935Z,34.00
2022-08-17T13:00:34.226Z,33.97
2022-08-17T13:01:38.895Z,34.03
2022-08-17T13:02:49.361Z,33.98
2022-08-17T13:03:52.475Z,33.92
2022-08-17T13:04:56.872Z,33.89
2022-08-17T13:06:01.033Z,33.90
2022-08-17T13:07:02.709Z,33.93
2022-08-17T13:08:17.326Z,33.93
2022-08-17T13:09:33.523Z,33.87
2022-08-17T13:10:41.570Z,33.92
2022-08-17T13:11:51.156Z,33.92
2022-08-17T13:12:53.330Z,33.94
2022-08-17T13:13:56.170Z,33.97
2022-08-17T13:14:58.193Z,34.03
2022-08-17T13:16:09.611Z,34.08
2022-08-17T13:17:13.579Z,34.13
2022-08-17T13:18:33.880Z,34.16
2022-08-17T13:19:41.001Z,34.16
2022-08-17T13:20:53.352Z,34.18
2022-08-17T13:21:57.133Z,34.27
2022-08-17T13:23:01.105Z,34.31
2022-08-17T13:24:12.178Z,34.29
2022-08-17T13:25:16.030Z,34.31
2022-08-17T13:26:17.650Z,34.33
2022-08-17T13:27:20.232Z,34.34
2022-08-17T13:28:30.593Z,34.37
2022-08-17T13:29:39.985Z,34.41
2022-08-17T13:30:41.602Z,34.37
2022-08-17T13:31:51.939Z,34.38
2022-08-17T13:32:56.306Z,34.37
2022-08-17T13:34:17.108Z,34.43
2022-08-17T13:35:40.066Z,34.45
2022-08-17T13:36:43.705Z,34.47
2022-08-17T13:37:58.064Z,34.44
2022-08-17T13:39:18.888Z,34.28
2022-08-17T13:40:20.438Z,34.25
2022-08-17T13:41:34.645Z,34.21
2022-08-17T13:42:51.668Z,34.24
2022-08-17T13:43:54.858Z,34.28
2022-08-17T13:44:56.537Z,34.28
2022-08-17T13:45:58.366Z,34.28
2022-08-17T13:47:00.459Z,34.31
2022-08-17T13:48:21.661Z,34.34
2022-08-17T13:49:23.320Z,34.38
2022-08-17T13:50:24.922Z,34.38
2022-08-17T13:51:41.691Z,34.33
2022-08-17T13:52:48.801Z,34.31
2022-08-17T13:53:55.729Z,34.27
2022-08-17T13:54:57.374Z,34.18
2022-08-17T13:56:07.469Z,34.10
2022-08-17T13:57:29.098Z,34.01
2022-08-17T13:58:32.530Z,33.98
2022-08-17T13:59:54.434Z,33.87
2022-08-17T14:00:57.295Z,33.83
2022-08-17T14:01:59.577Z,33.83
2022-08-17T14:03:02.124Z,33.74
2022-08-17T14:04:24.005Z,33.77
2022-08-17T14:05:26.159Z,33.76
2022-08-17T14:06:52.794Z,33.77
2022-08-17T14:08:01.480Z,33.77
2022-08-17T14:09:08.508Z,33.77
2022-08-17T14:10:15.112Z,33.78
2022-08-17T14:11:16.765Z,33.70
2022-08-17T14:12:20.423Z,33.66
2022-08-17T14:13:22.330Z,33.66
2022-08-17T14:14:24.081Z,33.63
2022-08-17T14:15:54.521Z,33.63
2022-08-17T14:16:47.628Z,33.63
2022-08-17T14:17:49.512Z,33.66
2022-08-17T14:18:56.984Z,33.69
2022-08-17T14:19:59.281Z,33.72
2022-08-17T14:21:00.918Z,33.74
2022-08-17T14:22:02.941Z,33.81
2022-08-17T14:23:04.600Z,33.77
2022-08-17T14:24:07.068Z,33.73
2022-08-17T14:25:10.686Z,33.76
2022-08-17T14:26:12.479Z,33.77
2022-08-17T14:27:18.076Z,33.83
2022-08-17T14:28:19.743Z,33.80
2022-08-17T14:29:21.936Z,33.84
2022-08-17T14:30:25.862Z,33.92
2022-08-17T14:31:28.710Z,33.87
2022-08-17T14:32:33.180Z,33.87
2022-08-17T14:33:35.043Z,33.90
2022-08-17T14:34:36.708Z,33.94
2022-08-17T14:35:38.408Z,33.97
2022-08-17T14:36:45.484Z,34.03
2022-08-17T14:37:51.210Z,34.01
2022-08-17T14:38:52.965Z,34.03
2022-08-17T14:39:58.999Z,34.07
2022-08-17T14:41:00.754Z,34.11
2022-08-17T14:42:02.452Z,34.13
2022-08-17T14:43:04.075Z,34.11
2022-08-17T14:44:05.800Z,34.08
2022-08-17T14:45:30.250Z,34.16
2022-08-17T14:46:32.492Z,34.13
2022-08-17T14:47:34.748Z,34.11
2022-08-17T14:48:38.653Z,34.13
2022-08-17T14:49:40.336Z,34.13
2022-08-17T14:50:42.511Z,34.13
2022-08-17T14:51:44.706Z,34.11
2022-08-17T14:52:47.515Z,34.10
2022-08-17T14:53:49.708Z,34.11
2022-08-17T14:54:52.216Z,34.13
2022-08-17T14:55:53.939Z,34.08
2022-08-17T14:57:04.634Z,34.06
2022-08-17T14:58:18.116Z,34.04